createdAt,value
2018-12-12T00:01:29.929Z,94307.67
2018-12-12T00:03:57.853Z,94309.98
2018-12-12T00:06:25.386Z,94304.41
2018-12-12T00:08:53.014Z,94309.06
2018-12-12T00:11:20.604Z,94298.38
2018-12-12T00:13:48.137Z,94297.39
2018-12-12T00:16:15.726Z,94295.98
2018-12-12T00:18:44.298Z,94294.06
2018-12-12T00:21:11.820Z,94296.14
2018-12-12T00:23:39.381Z,94296.83
2018-12-12T00:26:07.313Z,94289.84
2018-12-12T00:28:34.861Z,94289.84
2018-12-12T00:31:02.423Z,94291.00
2018-12-12T00:33:29.984Z,94297.69
2018-12-12T00:35:57.533Z,94298.61
2018-12-12T00:38:25.086Z,94305.90
2018-12-12T00:40:52.619Z,94311.83
2018-12-12T00:43:20.537Z,94303.75
2018-12-12T00:45:48.107Z,94309.82
2018-12-12T00:48:15.666Z,94312.73
2018-12-12T00:50:43.207Z,94305.80
2018-12-12T00:53:10.793Z,94309.66
2018-12-12T00:55:38.346Z,94307.83
2018-12-12T00:58:05.902Z,94302.81
2018-12-12T01:00:33.468Z,94309.88
2018-12-12T01:03:01.016Z,94312.97
2018-12-12T01:05:28.585Z,94311.58
2018-12-12T01:07:56.158Z,94313.80
2018-12-12T01:10:23.701Z,94316.57
2018-12-12T01:12:51.242Z,94314.09
2018-12-12T01:15:19.029Z,94316.91
2018-12-12T01:17:46.589Z,94321.25
2018-12-12T01:20:14.289Z,94312.97
2018-12-12T01:22:41.841Z,94316.03
2018-12-12T01:25:09.392Z,94298.72
2018-12-12T01:27:36.958Z,94303.79
2018-12-12T01:30:04.602Z,94297.00
2018-12-12T01:32:33.177Z,94300.25
2018-12-12T01:35:01.030Z,94295.80
2018-12-12T01:37:28.626Z,94301.18
2018-12-12T01:39:56.404Z,94296.48
2018-12-12T01:42:23.975Z,94294.34
2018-12-12T01:44:51.541Z,94295.47
2018-12-12T01:47:19.064Z,94293.59
2018-12-12T01:49:46.610Z,94288.19
2018-12-12T01:52:14.153Z,94288.72
2018-12-12T01:54:41.733Z,94293.02
2018-12-12T01:57:09.303Z,94294.63
2018-12-12T01:59:36.838Z,94291.00
2018-12-12T02:02:04.657Z,94286.58
2018-12-12T02:04:32.344Z,94288.07
2018-12-12T02:06:59.869Z,94284.73
2018-12-12T02:09:27.769Z,94284.94
2018-12-12T02:11:55.382Z,94278.30
2018-12-12T02:14:23.009Z,94279.70
2018-12-12T02:16:50.554Z,94272.43
2018-12-12T02:19:18.076Z,94282.16
2018-12-12T02:21:45.640Z,94280.73
2018-12-12T02:24:13.178Z,94287.34
2018-12-12T02:26:40.822Z,94290.13
2018-12-12T02:29:08.370Z,94292.72
2018-12-12T02:31:35.899Z,94291.27
2018-12-12T02:34:03.430Z,94289.72
2018-12-12T02:36:30.965Z,94282.78
2018-12-12T02:38:58.542Z,94283.14
2018-12-12T02:41:26.450Z,94276.73
2018-12-12T02:43:54.148Z,94277.98
2018-12-12T02:46:21.670Z,94278.98
2018-12-12T02:48:50.282Z,94280.98
2018-12-12T02:51:17.834Z,94282.30
2018-12-12T02:53:45.366Z,94277.87
2018-12-12T02:56:13.326Z,94272.45
2018-12-12T02:58:40.860Z,94278.94
2018-12-12T03:01:08.388Z,94272.51
2018-12-12T03:03:35.944Z,94278.35
2018-12-12T03:06:03.476Z,94274.34
2018-12-12T03:08:31.350Z,94271.68
2018-12-12T03:10:58.947Z,94270.42
2018-12-12T03:13:26.473Z,94272.77
2018-12-12T03:15:54.031Z,94267.72
2018-12-12T03:18:21.558Z,94274.61
2018-12-12T03:20:49.117Z,94272.75
2018-12-12T03:23:16.684Z,94264.30
2018-12-12T03:25:44.236Z,94267.59
2018-12-12T03:28:12.363Z,94268.73
2018-12-12T03:30:39.924Z,94264.57
2018-12-12T03:33:07.453Z,94267.26
2018-12-12T03:35:34.979Z,94259.17
2018-12-12T03:38:02.875Z,94259.89
2018-12-12T03:40:30.755Z,94257.77
2018-12-12T03:42:58.454Z,94256.35
2018-12-12T03:45:26.022Z,94255.77
2018-12-12T03:47:53.580Z,94255.30
2018-12-12T03:50:21.128Z,94258.44
2018-12-12T03:52:48.669Z,94254.80
2018-12-12T03:55:16.220Z,94265.09
2018-12-12T03:57:43.764Z,94258.78
2018-12-12T04:00:11.285Z,94260.09
2018-12-12T04:02:38.830Z,94257.62
2018-12-12T04:05:06.729Z,94257.97
2018-12-12T04:07:34.328Z,94251.28
2018-12-12T04:10:02.757Z,94245.73
2018-12-12T04:12:30.318Z,94247.31
2018-12-12T04:14:57.902Z,94251.32
2018-12-12T04:17:25.517Z,94244.05
2018-12-12T04:19:53.087Z,94246.83
2018-12-12T04:22:20.901Z,94248.81
2018-12-12T04:24:48.960Z,94252.05
2018-12-12T04:27:16.507Z,94242.72
2018-12-12T04:29:44.077Z,94243.85
2018-12-12T04:32:11.633Z,94241.03
2018-12-12T04:34:39.178Z,94236.20
2018-12-12T04:37:07.055Z,94235.48
2018-12-12T04:39:34.661Z,94243.39
2018-12-12T04:42:02.230Z,94242.47
2018-12-12T04:44:29.782Z,94240.98
2018-12-12T04:46:57.341Z,94238.84
2018-12-12T04:49:24.894Z,94249.05
2018-12-12T04:51:52.450Z,94245.70
2018-12-12T04:54:20.018Z,94248.77
2018-12-12T04:56:47.566Z,94251.34
2018-12-12T04:59:15.362Z,94244.78
2018-12-12T05:01:42.910Z,94249.64
2018-12-12T05:04:10.449Z,94238.50
2018-12-12T05:06:38.005Z,94245.62
2018-12-12T05:09:06.103Z,94244.06
2018-12-12T05:11:33.650Z,94245.58
2018-12-12T05:14:01.568Z,94242.29
2018-12-12T05:16:29.104Z,94244.14
2018-12-12T05:18:57.769Z,94248.58
2018-12-12T05:21:25.301Z,94255.63
2018-12-12T05:23:52.853Z,94252.20
2018-12-12T05:26:20.460Z,94255.19
2018-12-12T05:28:48.054Z,94253.04
2018-12-12T05:31:15.650Z,94254.91
2018-12-12T05:33:43.310Z,94258.95
2018-12-12T05:36:10.886Z,94250.92
2018-12-12T05:38:38.647Z,94251.53
2018-12-12T05:41:06.215Z,94258.31
2018-12-12T05:43:33.777Z,94256.48
2018-12-12T05:46:01.409Z,94255.48
2018-12-12T05:48:30.005Z,94262.86
2018-12-12T05:50:57.562Z,94254.52
2018-12-12T05:53:26.049Z,94251.66
2018-12-12T05:55:53.714Z,94255.16
2018-12-12T05:58:21.256Z,94254.06
2018-12-12T06:00:48.840Z,94255.93
2018-12-12T06:03:16.437Z,94263.67
2018-12-12T06:05:44.002Z,94259.05
2018-12-12T06:08:12.622Z,94258.73
2018-12-12T06:10:40.282Z,94255.30
2018-12-12T06:13:07.841Z,94251.44
2018-12-12T06:15:35.391Z,94254.22
2018-12-12T06:18:02.970Z,94261.00
2018-12-12T06:20:30.888Z,94252.53
2018-12-12T06:22:58.446Z,94255.29
2018-12-12T06:25:26.014Z,94249.59
2018-12-12T06:27:53.598Z,94254.64
2018-12-12T06:30:21.333Z,94253.59
2018-12-12T06:32:48.905Z,94251.76
2018-12-12T06:35:16.485Z,94249.97
2018-12-12T06:37:44.057Z,94252.77
2018-12-12T06:40:11.624Z,94258.08
2018-12-12T06:42:39.177Z,94252.53
2018-12-12T06:45:06.764Z,94256.58
2018-12-12T06:47:34.331Z,94250.80
2018-12-12T06:50:02.067Z,94256.16
2018-12-12T06:52:29.784Z,94258.00
2018-12-12T06:54:57.322Z,94252.67
2018-12-12T06:57:25.402Z,94256.16
2018-12-12T06:59:53.164Z,94249.47
2018-12-12T07:02:20.725Z,94255.80
2018-12-12T07:04:48.533Z,94248.13
2018-12-12T07:07:16.223Z,94250.83
2018-12-12T07:09:44.320Z,94257.75
2018-12-12T07:12:11.946Z,94261.78
2018-12-12T07:14:39.484Z,94265.54
2018-12-12T07:17:07.094Z,94260.63
2018-12-12T07:19:34.735Z,94272.33
2018-12-12T07:22:02.313Z,94269.34
2018-12-12T07:24:29.905Z,94263.27
2018-12-12T07:26:57.465Z,94266.57
2018-12-12T07:29:25.028Z,94262.66
2018-12-12T07:31:52.681Z,94264.92
2018-12-12T07:34:20.328Z,94273.53
2018-12-12T07:36:48.058Z,94274.28
2018-12-12T07:39:18.056Z,94274.12
2018-12-12T07:41:45.255Z,94279.06
2018-12-12T07:44:12.816Z,94277.91
2018-12-12T07:46:40.750Z,94280.28
2018-12-12T07:49:08.591Z,94273.92
2018-12-12T07:51:36.161Z,94274.68
2018-12-12T07:54:03.750Z,94267.69
2018-12-12T07:56:31.428Z,94275.90
2018-12-12T07:58:59.186Z,94271.61
2018-12-12T08:01:27.058Z,94265.90
2018-12-12T08:03:54.685Z,94268.01
2018-12-12T08:06:22.315Z,94265.17
2018-12-12T08:08:49.974Z,94272.41
2018-12-12T08:11:17.581Z,94260.86
2018-12-12T08:13:45.134Z,94264.41
2018-12-12T08:16:12.845Z,94273.44
2018-12-12T08:18:40.700Z,94269.73
2018-12-12T08:21:08.289Z,94265.08
2018-12-12T08:23:36.225Z,94268.85
2018-12-12T08:26:03.926Z,94268.17
2018-12-12T08:28:31.526Z,94265.15
2018-12-12T08:30:59.118Z,94264.80
2018-12-12T08:33:26.663Z,94253.48
2018-12-12T08:35:54.237Z,94258.18
2018-12-12T08:38:21.833Z,94256.53
2018-12-12T08:40:49.399Z,94255.39
2018-12-12T08:43:16.952Z,94256.13
2018-12-12T08:45:44.514Z,94253.30
2018-12-12T08:48:12.200Z,94257.69
2018-12-12T08:50:39.814Z,94262.02
2018-12-12T08:53:07.650Z,94258.03
2018-12-12T08:55:35.275Z,94251.44
2018-12-12T08:58:02.906Z,94247.20
2018-12-12T09:00:30.858Z,94247.31
2018-12-12T09:02:58.423Z,94242.51
2018-12-12T09:05:25.975Z,94241.96
2018-12-12T09:07:53.794Z,94249.59
2018-12-12T09:10:21.427Z,94246.81
2018-12-12T09:12:49.006Z,94245.34
2018-12-12T09:15:16.589Z,94253.22
2018-12-12T09:17:44.198Z,94261.22
2018-12-12T09:20:11.752Z,94264.96
2018-12-12T09:22:39.315Z,94263.34
2018-12-12T09:25:07.035Z,94267.54
2018-12-12T09:27:34.606Z,94278.59
2018-12-12T09:30:02.199Z,94285.55
2018-12-12T09:32:29.771Z,94279.57
2018-12-12T09:34:57.356Z,94280.41
2018-12-12T09:37:24.921Z,94279.80
2018-12-12T09:39:52.522Z,94280.50
2018-12-12T09:42:20.479Z,94274.86
2018-12-12T09:44:48.027Z,94279.09
2018-12-12T09:47:15.634Z,94279.11
2018-12-12T09:49:43.215Z,94274.90
2018-12-12T09:52:10.815Z,94274.90
2018-12-12T09:54:38.386Z,94276.75
2018-12-12T09:57:05.978Z,94276.42
2018-12-12T09:59:33.528Z,94270.19
2018-12-12T10:02:01.223Z,94268.06
2018-12-12T10:04:28.749Z,94271.58
2018-12-12T10:06:56.345Z,94271.36
2018-12-12T10:09:24.078Z,94271.92
2018-12-12T10:11:51.673Z,94259.70
2018-12-12T10:14:19.212Z,94265.22
2018-12-12T10:16:46.789Z,94265.33
2018-12-12T10:19:14.635Z,94264.28
2018-12-12T10:21:42.859Z,94265.41
2018-12-12T10:24:10.446Z,94266.86
2018-12-12T10:26:38.182Z,94264.96
2018-12-12T10:29:05.828Z,94264.48
2018-12-12T10:31:33.647Z,94257.48
2018-12-12T10:34:01.393Z,94258.41
2018-12-12T10:36:29.729Z,94252.99
2018-12-12T10:38:57.294Z,94247.13
2018-12-12T10:41:25.167Z,94244.76
2018-12-12T10:43:52.714Z,94246.81
2018-12-12T10:46:20.289Z,94245.66
2018-12-12T10:48:47.841Z,94239.92
2018-12-12T10:51:15.420Z,94230.34
2018-12-12T10:53:43.084Z,94223.86
2018-12-12T10:56:10.692Z,94223.05
2018-12-12T10:58:38.390Z,94223.75
2018-12-12T11:01:11.882Z,94223.36
2018-12-12T11:03:44.227Z,94216.00
2018-12-12T11:06:10.217Z,94215.86
2018-12-12T11:08:37.802Z,94218.14
2018-12-12T11:11:05.462Z,94213.92
2018-12-12T11:13:33.366Z,94209.87
2018-12-12T11:16:00.981Z,94207.38
2018-12-12T11:18:28.546Z,94207.91
2018-12-12T11:20:56.161Z,94206.23
2018-12-12T11:23:24.012Z,94199.95
2018-12-12T11:25:51.581Z,94197.56
2018-12-12T11:28:19.225Z,94194.39
2018-12-12T11:30:46.806Z,94191.22
2018-12-12T11:33:14.440Z,94189.66
2018-12-12T11:35:42.153Z,94190.13
2018-12-12T11:38:09.730Z,94182.06
2018-12-12T11:40:37.297Z,94182.16
2018-12-12T11:43:04.941Z,94175.08
2018-12-12T11:45:33.922Z,94177.30
2018-12-12T11:48:01.628Z,94172.14
2018-12-12T11:50:29.203Z,94174.04
2018-12-12T11:53:08.113Z,94172.97
2018-12-12T11:55:35.690Z,94166.26
2018-12-12T11:58:03.393Z,94167.20
2018-12-12T12:00:31.052Z,94172.13
2018-12-12T12:02:58.637Z,94173.33
2018-12-12T12:05:26.264Z,94170.80
2018-12-12T12:07:53.817Z,94170.59
2018-12-12T12:10:21.385Z,94172.55
2018-12-12T12:12:49.256Z,94166.49
2018-12-12T12:15:16.866Z,94174.31
2018-12-12T12:17:44.474Z,94168.55
2018-12-12T12:20:12.429Z,94168.05
2018-12-12T12:22:39.967Z,94163.63
2018-12-12T12:25:07.559Z,94165.58
2018-12-12T12:27:35.228Z,94151.58
2018-12-12T12:30:03.130Z,94147.73
2018-12-12T12:32:30.765Z,94144.25
2018-12-12T12:34:58.445Z,94142.58
2018-12-12T12:37:26.036Z,94139.17
2018-12-12T12:39:53.593Z,94139.37
2018-12-12T12:42:21.169Z,94136.47
2018-12-12T12:44:48.806Z,94130.56
2018-12-12T12:47:16.368Z,94134.78
2018-12-12T12:49:43.953Z,94129.38
2018-12-12T12:52:11.510Z,94133.33
2018-12-12T12:54:39.384Z,94131.69
2018-12-12T12:57:07.457Z,94126.52
2018-12-12T12:59:35.017Z,94129.19
2018-12-12T13:02:02.590Z,94120.61
2018-12-12T13:04:30.205Z,94124.36
2018-12-12T13:06:57.766Z,94119.70
2018-12-12T13:09:25.333Z,94122.81
2018-12-12T13:11:52.998Z,94116.63
2018-12-12T13:14:20.678Z,94112.56
2018-12-12T13:16:48.375Z,94117.91
2018-12-12T13:19:15.939Z,94121.52
2018-12-12T13:21:43.976Z,94114.72
2018-12-12T13:24:11.526Z,94112.67
2018-12-12T13:26:39.106Z,94115.15
2018-12-12T13:29:07.409Z,94106.34
2018-12-12T13:31:34.994Z,94111.94
2018-12-12T13:34:02.674Z,94107.13
2018-12-12T13:36:30.592Z,94105.92
2018-12-12T13:38:58.145Z,94103.17
2018-12-12T13:41:25.689Z,94102.23
2018-12-12T13:43:53.380Z,94095.66
2018-12-12T13:46:20.951Z,94095.94
2018-12-12T13:48:48.524Z,94093.59
2018-12-12T13:51:16.084Z,94092.06
2018-12-12T13:53:43.667Z,94096.17
2018-12-12T13:56:11.214Z,94089.52
2018-12-12T13:58:38.805Z,94091.28
2018-12-12T14:01:06.485Z,94085.84
2018-12-12T14:03:34.064Z,94085.61
2018-12-12T14:06:01.921Z,94087.92
2018-12-12T14:08:29.487Z,94085.84
2018-12-12T14:10:57.082Z,94085.84
2018-12-12T14:13:24.666Z,94083.38
2018-12-12T14:15:52.834Z,94087.14
2018-12-12T14:18:20.419Z,94087.25
2018-12-12T14:20:48.006Z,94090.38
2018-12-12T14:23:15.746Z,94083.03
2018-12-12T14:25:43.352Z,94078.37
2018-12-12T14:28:10.909Z,94075.09
2018-12-12T14:30:38.519Z,94073.77
2018-12-12T14:33:06.749Z,94075.09
2018-12-12T14:35:34.309Z,94069.18
2018-12-12T14:38:01.931Z,94068.88
2018-12-12T14:40:29.494Z,94067.86
2018-12-12T14:42:57.073Z,94065.59
2018-12-12T14:45:24.674Z,94068.05
2018-12-12T14:47:52.230Z,94070.00
2018-12-12T14:50:19.850Z,94067.42
2018-12-12T14:52:47.409Z,94066.91
2018-12-12T14:55:15.147Z,94066.68
2018-12-12T14:57:43.733Z,94065.78
2018-12-12T15:00:11.376Z,94063.59
2018-12-12T15:02:38.959Z,94058.98
2018-12-12T15:05:06.689Z,94058.31
2018-12-12T15:07:34.273Z,94054.02
2018-12-12T15:10:02.978Z,94054.79
2018-12-12T15:12:30.623Z,94054.59
2018-12-12T15:14:58.325Z,94055.36
2018-12-12T15:17:26.219Z,94060.72
2018-12-12T15:19:53.798Z,94052.98
2018-12-12T15:22:21.663Z,94053.66
2018-12-12T15:24:49.219Z,94047.12
2018-12-12T15:27:16.837Z,94052.53
2018-12-12T15:29:44.378Z,94046.27
2018-12-12T15:32:12.290Z,94043.50
2018-12-12T15:34:42.381Z,94042.71
2018-12-12T15:37:09.444Z,94050.95
2018-12-12T15:39:37.036Z,94050.80
2018-12-12T15:42:04.596Z,94046.06
2018-12-12T15:44:32.513Z,94043.52
2018-12-12T15:47:00.128Z,94045.83
2018-12-12T15:49:27.704Z,94049.16
2018-12-12T15:51:55.290Z,94040.41
2018-12-12T15:54:22.900Z,94041.42
2018-12-12T15:56:50.587Z,94046.47
2018-12-12T15:59:18.166Z,94040.05
2018-12-12T16:01:46.826Z,94041.53
2018-12-12T16:04:14.414Z,94036.02
2018-12-12T16:06:42.004Z,94037.66
2018-12-12T16:09:09.577Z,94036.45
2018-12-12T16:11:37.129Z,94036.27
2018-12-12T16:14:04.738Z,94038.41
2018-12-12T16:16:32.328Z,94034.81
2018-12-12T16:18:59.969Z,94034.03
2018-12-12T16:21:27.552Z,94029.30
2018-12-12T16:23:55.145Z,94034.81
2018-12-12T16:26:22.821Z,94036.02
2018-12-12T16:28:50.383Z,94035.75
2018-12-12T16:31:17.973Z,94036.45
2018-12-12T16:33:45.550Z,94038.17
2018-12-12T16:36:13.137Z,94033.69
2018-12-12T16:38:40.726Z,94040.67
2018-12-12T16:41:09.365Z,94032.93
2018-12-12T16:43:36.952Z,94037.12
2018-12-12T16:46:04.522Z,94037.97
2018-12-12T16:48:32.196Z,94031.99
2018-12-12T16:50:59.779Z,94031.67
2018-12-12T16:53:28.326Z,94028.66
2018-12-12T16:55:55.948Z,94041.17
2018-12-12T16:58:23.554Z,94028.98
2018-12-12T17:00:51.144Z,94030.86
2018-12-12T17:03:18.789Z,94026.91
2018-12-12T17:05:46.390Z,94026.64
2018-12-12T17:08:13.959Z,94024.61
2018-12-12T17:10:41.527Z,94029.77
2018-12-12T17:13:09.132Z,94020.66
2018-12-12T17:15:36.717Z,94017.28
2018-12-12T17:18:04.303Z,94014.25
2018-12-12T17:20:31.895Z,94014.07
2018-12-12T17:22:59.522Z,94019.23
2018-12-12T17:25:27.214Z,94013.72
2018-12-12T17:27:54.852Z,94015.07
2018-12-12T17:30:22.588Z,94008.95
2018-12-12T17:32:50.162Z,94019.17
2018-12-12T17:35:18.024Z,94018.91
2018-12-12T17:37:45.613Z,94017.03
2018-12-12T17:40:13.200Z,94010.59
2018-12-12T17:42:40.813Z,94007.66
2018-12-12T17:45:08.699Z,94006.95
2018-12-12T17:47:36.294Z,94009.30
2018-12-12T17:50:04.595Z,94007.66
2018-12-12T17:52:32.230Z,94007.16
2018-12-12T17:54:59.861Z,93999.42
2018-12-12T17:57:27.483Z,94008.84
2018-12-12T17:59:55.849Z,94009.50
2018-12-12T18:02:23.436Z,94008.45
2018-12-12T18:04:51.018Z,94006.92
2018-12-12T18:07:18.596Z,94009.75
2018-12-12T18:09:46.185Z,94007.00
2018-12-12T18:12:13.745Z,94006.22
2018-12-12T18:14:41.295Z,94000.20
2018-12-12T18:17:08.929Z,94005.52
2018-12-12T18:19:36.516Z,94010.17
2018-12-12T18:22:04.134Z,94006.57
2018-12-12T18:24:31.748Z,94008.80
2018-12-12T18:26:59.343Z,94005.36
2018-12-12T18:29:27.190Z,94004.51
2018-12-12T18:31:54.836Z,93997.92
2018-12-12T18:34:22.453Z,93997.55
2018-12-12T18:36:50.192Z,94000.97
2018-12-12T18:39:17.744Z,93998.05
2018-12-12T18:41:45.713Z,93993.83
2018-12-12T18:44:13.321Z,94001.77
2018-12-12T18:46:40.935Z,93989.54
2018-12-12T18:49:08.565Z,93992.89
2018-12-12T18:51:36.176Z,93998.56
2018-12-12T18:54:03.815Z,93994.61
2018-12-12T18:56:31.433Z,93998.72
2018-12-12T18:58:58.996Z,93993.05
2018-12-12T19:01:26.585Z,93995.91
2018-12-12T19:03:54.156Z,93993.32
2018-12-12T19:06:21.745Z,93992.19
2018-12-12T19:08:49.364Z,94000.19
2018-12-12T19:11:16.973Z,93995.03
2018-12-12T19:13:44.559Z,93993.39
2018-12-12T19:16:12.255Z,93992.02
2018-12-12T19:18:39.881Z,93987.73
2018-12-12T19:21:07.521Z,93985.70
2018-12-12T19:23:35.394Z,93987.90
2018-12-12T19:26:03.306Z,93983.59
2018-12-12T19:28:30.925Z,93985.39
2018-12-12T19:30:58.529Z,93981.88
2018-12-12T19:33:26.159Z,93977.83
2018-12-12T19:35:53.771Z,93984.36
2018-12-12T19:38:21.320Z,93984.72
2018-12-12T19:40:48.990Z,93979.23
2018-12-12T19:43:17.593Z,93977.13
2018-12-12T19:45:45.204Z,93979.42
2018-12-12T19:48:12.890Z,93980.20
2018-12-12T19:50:40.527Z,93977.55
2018-12-12T19:53:08.139Z,93974.03
2018-12-12T19:55:36.000Z,93975.48
2018-12-12T19:58:03.597Z,93975.41
2018-12-12T20:00:31.209Z,93974.20
2018-12-12T20:02:59.139Z,93971.63
2018-12-12T20:05:26.757Z,93971.47
2018-12-12T20:07:54.502Z,93967.99
2018-12-12T20:10:22.153Z,93972.93
2018-12-12T20:12:49.747Z,93970.35
2018-12-12T20:15:22.811Z,93961.01
2018-12-12T20:17:50.411Z,93970.27
2018-12-12T20:20:18.034Z,93954.64
2018-12-12T20:22:45.842Z,93960.58
2018-12-12T20:25:13.446Z,93956.02
2018-12-12T20:27:41.796Z,93950.62
2018-12-12T20:30:09.646Z,93953.35
2018-12-12T20:32:37.258Z,93964.02
2018-12-12T20:35:04.861Z,93958.08
2018-12-12T20:37:32.475Z,93958.16
2018-12-12T20:40:00.094Z,93954.05
2018-12-12T20:42:27.699Z,93946.20
2018-12-12T20:44:55.310Z,93940.53
2018-12-12T20:47:22.936Z,93942.84
2018-12-12T20:49:50.638Z,93944.45
2018-12-12T20:52:18.255Z,93934.95
2018-12-12T20:54:45.862Z,93939.41
2018-12-12T20:57:13.473Z,93936.83
2018-12-12T20:59:41.029Z,93937.65
2018-12-12T21:02:08.684Z,93931.16
2018-12-12T21:04:36.297Z,93927.48
2018-12-12T21:07:04.391Z,93931.16
2018-12-12T21:09:32.032Z,93923.27
2018-12-12T21:11:59.641Z,93916.73
2018-12-12T21:14:27.242Z,93922.25
2018-12-12T21:16:54.908Z,93915.45
2018-12-12T21:19:23.560Z,93911.63
2018-12-12T21:21:51.134Z,93909.76
2018-12-12T21:24:18.750Z,93905.38
2018-12-12T21:26:46.397Z,93909.16
2018-12-12T21:29:13.967Z,93903.07
2018-12-12T21:31:41.560Z,93904.95
2018-12-12T21:34:09.164Z,93900.30
2018-12-12T21:36:36.776Z,93892.41
2018-12-12T21:39:05.578Z,93892.16
2018-12-12T21:41:33.343Z,93894.63
2018-12-12T21:44:00.900Z,93896.27
2018-12-12T21:46:28.555Z,93893.86
2018-12-12T21:48:56.127Z,93890.17
2018-12-12T21:51:24.045Z,93886.55
2018-12-12T21:53:51.629Z,93889.98
2018-12-12T21:56:19.282Z,93888.62
2018-12-12T21:58:47.252Z,93884.16
2018-12-12T22:01:14.853Z,93887.84
2018-12-12T22:03:42.576Z,93890.27
2018-12-12T22:06:10.243Z,93895.58
2018-12-12T22:08:37.822Z,93898.30
2018-12-12T22:11:05.448Z,93898.42
2018-12-12T22:13:33.098Z,93894.63
2018-12-12T22:16:00.791Z,93885.27
2018-12-12T22:18:28.809Z,93889.05
2018-12-12T22:20:56.377Z,93887.84
2018-12-12T22:23:24.010Z,93883.08
2018-12-12T22:25:52.018Z,93888.62
2018-12-12T22:28:19.593Z,93889.32
2018-12-12T22:30:47.133Z,93883.55
2018-12-12T22:33:15.173Z,93895.14
2018-12-12T22:35:42.791Z,93891.90
2018-12-12T22:38:10.485Z,93891.47
2018-12-12T22:40:38.158Z,93892.14
2018-12-12T22:43:05.811Z,93894.20
2018-12-12T22:45:34.946Z,93888.11
2018-12-12T22:48:02.543Z,93890.14
2018-12-12T22:50:30.194Z,93891.70
2018-12-12T22:52:57.770Z,93884.83
2018-12-12T22:55:25.368Z,93878.57
2018-12-12T22:57:53.081Z,93878.65
2018-12-12T23:00:26.357Z,93875.41
2018-12-12T23:02:54.427Z,93870.82
2018-12-12T23:05:22.080Z,93873.25
2018-12-12T23:07:49.703Z,93870.56
2018-12-12T23:10:17.308Z,93866.55
2018-12-12T23:12:44.996Z,93863.97
2018-12-12T23:15:12.853Z,93861.30
2018-12-12T23:17:41.012Z,93862.28
2018-12-12T23:20:08.700Z,93851.07
2018-12-12T23:22:36.359Z,93856.14
2018-12-12T23:25:04.310Z,93849.62
2018-12-12T23:27:31.898Z,93845.13
2018-12-12T23:29:59.790Z,93842.22
2018-12-12T23:32:27.354Z,93850.44
2018-12-12T23:34:54.940Z,93843.17
2018-12-12T23:37:22.546Z,93841.87
2018-12-12T23:39:50.115Z,93840.06
2018-12-12T23:42:17.697Z,93831.69
2018-12-12T23:44:45.303Z,93829.58
2018-12-12T23:47:12.973Z,93833.45
2018-12-12T23:49:41.033Z,93831.11
2018-12-12T23:52:08.626Z,93822.19
2018-12-12T23:54:36.178Z,93818.08
2018-12-12T23:57:03.786Z,93822.95
2018-12-12T23:59:31.345Z,93819.86
